Time;durP1;ratioP1;P1;durP2;ratioP2;P2;SDS_P1;SDS_P2;PMS_P1;PMS_P2;Temp;Humidity;BMP_temperature;BMP_pressure;BME280_temperature;BME280_humidity;BME280_pressure;Samples;Min_cycle;Max_cycle;Signal;HPM_P1;HPM_P2
2022/07/19 00:00:28;;;;;;;6.35;3.42;;;21.10;99.90;;;;;;5050563;28;20220;-81
2022/07/19 00:03:20;;;;;;;6.53;3.55;;;21.10;99.90;;;;;;5062238;28;20580;-80
2022/07/19 00:06:10;;;;;;;6.63;3.70;;;21.00;99.90;;;;;;5064851;28;20366;-81
2022/07/19 00:08:59;;;;;;;5.55;3.40;;;21.10;99.90;;;;;;5052058;28;20228;-81
2022/07/19 00:11:48;;;;;;;5.30;4.10;;;21.00;99.90;;;;;;5067497;28;20231;-80
2022/07/19 00:14:37;;;;;;;6.13;3.50;;;21.00;99.90;;;;;;5063148;28;20319;-80
2022/07/19 00:17:26;;;;;;;5.63;3.47;;;21.00;99.90;;;;;;5052389;28;20587;-85
2022/07/19 00:20:19;;;;;;;7.55;3.40;;;21.10;99.90;;;;;;5065887;28;20247;-81
2022/07/19 00:23:08;;;;;;;5.00;3.42;;;21.10;99.90;;;;;;5069900;28;20212;-80
2022/07/19 00:25:56;;;;;;;5.30;3.60;;;21.10;99.90;;;;;;5099714;28;20232;-82
2022/07/19 00:28:45;;;;;;;8.10;4.60;;;21.00;99.90;;;;;;5050857;28;20220;-81
2022/07/19 00:31:34;;;;;;;7.05;3.65;;;21.00;99.90;;;;;;5062804;28;20208;-82
2022/07/19 00:34:24;;;;;;;8.13;3.53;;;21.00;99.90;;;;;;5067446;28;20228;-83
2022/07/19 00:37:14;;;;;;;5.95;3.92;;;21.00;99.90;;;;;;5065810;28;20232;-82
2022/07/19 00:40:03;;;;;;;8.77;4.07;;;20.90;99.90;;;;;;5064536;28;20895;-82
2022/07/19 00:42:54;;;;;;;6.20;3.70;;;21.00;99.90;;;;;;5067427;28;21051;-80
2022/07/19 00:45:43;;;;;;;9.20;4.22;;;21.00;99.90;;;;;;5048593;28;20307;-81
2022/07/19 00:48:32;;;;;;;6.10;3.60;;;20.90;99.90;;;;;;5035049;28;20224;-81
2022/07/19 00:51:21;;;;;;;5.75;3.67;;;20.90;99.90;;;;;;5065459;28;20385;-81
2022/07/19 00:54:13;;;;;;;7.22;4.03;;;21.00;99.90;;;;;;5060335;28;20220;-82
2022/07/19 00:57:03;;;;;;;7.70;4.10;;;20.90;99.90;;;;;;5065453;28;20403;-81
2022/07/19 00:59:54;;;;;;;7.57;4.25;;;20.90;99.90;;;;;;5072791;28;20729;-81
2022/07/19 01:02:43;;;;;;;6.07;3.92;;;20.90;99.90;;;;;;5068748;28;20223;-81
2022/07/19 01:05:32;;;;;;;7.03;3.95;;;20.90;99.90;;;;;;5044345;28;20282;-81
2022/07/19 01:08:21;;;;;;;8.73;4.47;;;20.80;99.90;;;;;;5049869;28;20964;-81
2022/07/19 01:11:11;;;;;;;5.85;3.83;;;20.80;99.90;;;;;;5073632;28;20596;-80
2022/07/19 01:14:00;;;;;;;5.65;3.55;;;20.80;99.90;;;;;;5064742;28;20255;-81
2022/07/19 01:16:49;;;;;;;9.57;4.20;;;20.80;99.90;;;;;;5050153;28;20231;-83
2022/07/19 01:19:37;;;;;;;5.20;3.53;;;20.90;99.90;;;;;;5074332;28;20529;-80
2022/07/19 01:22:28;;;;;;;7.38;3.30;;;20.90;99.90;;;;;;5075908;28;20288;-81
2022/07/19 01:25:17;;;;;;;7.65;4.22;;;20.80;99.90;;;;;;5051530;28;20231;-82
2022/07/19 01:28:07;;;;;;;8.20;3.47;;;20.80;99.90;;;;;;5056022;28;20573;-81
2022/07/19 01:30:56;;;;;;;8.95;3.97;;;20.80;99.90;;;;;;5061968;28;20213;-80
2022/07/19 01:33:46;;;;;;;9.13;4.38;;;20.80;99.90;;;;;;5068671;28;20224;-81
2022/07/19 01:36:35;;;;;;;8.07;4.07;;;20.80;99.90;;;;;;5086272;28;20267;-81
2022/07/19 01:39:26;;;;;;;5.85;3.72;;;20.80;99.90;;;;;;5080450;28;20240;-81
2022/07/19 01:42:14;;;;;;;8.23;3.65;;;20.80;99.90;;;;;;5076869;28;20219;-82
2022/07/19 01:45:03;;;;;;;7.80;4.22;;;20.80;99.90;;;;;;5064603;28;20296;-80
2022/07/19 01:47:52;;;;;;;5.63;3.80;;;20.80;99.90;;;;;;5082207;28;20246;-80
2022/07/19 01:50:41;;;;;;;6.18;3.47;;;20.70;99.90;;;;;;5066878;28;20271;-81
2022/07/19 01:53:29;;;;;;;6.50;4.22;;;20.70;99.90;;;;;;5069535;28;20307;-80
2022/07/19 01:56:20;;;;;;;6.68;3.50;;;20.70;99.90;;;;;;5063999;28;20235;-81
2022/07/19 01:59:09;;;;;;;6.35;3.97;;;20.70;99.90;;;;;;5058315;28;20224;-81
2022/07/19 02:01:57;;;;;;;7.45;3.58;;;20.70;99.90;;;;;;5045981;28;20213;-81
2022/07/19 02:04:46;;;;;;;8.32;4.20;;;20.70;99.90;;;;;;5061685;28;20220;-82
2022/07/19 02:07:35;;;;;;;5.18;4.00;;;20.70;99.90;;;;;;5073004;28;20224;-81
2022/07/19 02:10:24;;;;;;;7.40;4.30;;;20.60;99.90;;;;;;5046835;28;20224;-81
2022/07/19 02:13:14;;;;;;;9.00;4.10;;;20.70;99.90;;;;;;5051543;28;20218;-85
2022/07/19 02:16:03;;;;;;;6.70;3.78;;;20.60;99.90;;;;;;5068655;28;20223;-82
2022/07/19 02:18:52;;;;;;;4.80;4.00;;;20.60;99.90;;;;;;5078334;28;20235;-82
2022/07/19 02:21:41;;;;;;;7.85;3.83;;;20.60;99.90;;;;;;5055652;28;20266;-82
2022/07/19 02:24:29;;;;;;;6.68;3.40;;;20.50;99.90;;;;;;5052788;28;20223;-82
2022/07/19 02:27:19;;;;;;;8.00;3.83;;;20.50;99.90;;;;;;5059519;28;20232;-80
2022/07/19 02:30:12;;;;;;;6.18;3.70;;;20.50;99.90;;;;;;5059211;28;20276;-81
2022/07/19 02:33:00;;;;;;;6.50;3.42;;;20.50;99.90;;;;;;5069636;28;20576;-81
2022/07/19 02:35:49;;;;;;;5.68;3.95;;;20.50;99.90;;;;;;5080466;28;20220;-82
2022/07/19 02:38:38;;;;;;;8.25;3.85;;;20.50;99.90;;;;;;5050337;28;20262;-81
2022/07/19 02:41:27;;;;;;;6.82;4.13;;;20.40;99.90;;;;;;5080823;28;20250;-81
2022/07/19 02:44:15;;;;;;;6.95;3.78;;;20.30;99.90;;;;;;5068891;28;20224;-83
2022/07/19 02:47:06;;;;;;;8.30;4.07;;;20.40;99.90;;;;;;5052915;28;20224;-82
2022/07/19 02:49:54;;;;;;;6.50;4.03;;;20.40;99.90;;;;;;5050553;28;20224;-81
2022/07/19 02:52:43;;;;;;;8.95;4.20;;;20.50;99.90;;;;;;5065732;28;20228;-81
2022/07/19 02:55:32;;;;;;;9.13;3.90;;;20.40;99.90;;;;;;5049766;28;20212;-81
2022/07/19 02:58:21;;;;;;;7.97;3.90;;;20.40;99.90;;;;;;5066922;28;20224;-81
2022/07/19 03:01:09;;;;;;;9.13;3.60;;;20.40;99.90;;;;;;5058156;28;20217;-81
2022/07/19 03:04:00;;;;;;;7.25;3.88;;;20.40;99.90;;;;;;5066412;28;20229;-82
2022/07/19 03:06:49;;;;;;;6.95;4.00;;;20.40;99.90;;;;;;5055099;28;20705;-81
2022/07/19 03:09:38;;;;;;;5.65;3.80;;;20.50;99.90;;;;;;5051146;28;20635;-82
2022/07/19 03:12:27;;;;;;;11.05;4.13;;;20.40;99.90;;;;;;5051699;28;20223;-82
2022/07/19 03:15:15;;;;;;;6.38;3.88;;;20.40;99.90;;;;;;5065711;28;20225;-82
2022/07/19 03:18:04;;;;;;;6.30;3.78;;;20.40;99.90;;;;;;5062046;28;20603;-81
2022/07/19 03:20:57;;;;;;;5.95;4.03;;;20.40;99.90;;;;;;5046614;28;20579;-82
2022/07/19 03:23:46;;;;;;;6.80;3.90;;;20.40;99.90;;;;;;5063629;28;20220;-81
2022/07/19 03:26:35;;;;;;;8.90;4.30;;;20.40;99.90;;;;;;5082293;28;20644;-81
2022/07/19 03:29:23;;;;;;;10.68;4.22;;;20.30;99.90;;;;;;5062434;28;20222;-81
2022/07/19 03:32:17;;;;;;;8.52;4.43;;;20.30;99.90;;;;;;5074892;28;20221;-83
2022/07/19 03:35:07;;;;;;;5.43;3.85;;;20.30;99.90;;;;;;5070651;28;20247;-80
2022/07/19 03:37:57;;;;;;;5.80;4.43;;;20.30;99.90;;;;;;5050849;28;20284;-81
2022/07/19 03:40:47;;;;;;;5.55;3.90;;;20.30;99.90;;;;;;5061628;28;20227;-81
2022/07/19 03:43:38;;;;;;;7.22;3.90;;;20.30;99.90;;;;;;5075654;28;20213;-81
2022/07/19 03:46:28;;;;;;;8.88;4.72;;;20.30;99.90;;;;;;5064980;28;20235;-81
2022/07/19 03:49:16;;;;;;;10.00;4.20;;;20.30;99.90;;;;;;5053681;28;20227;-81
2022/07/19 03:52:06;;;;;;;8.98;4.20;;;20.30;99.90;;;;;;5049795;28;20252;-82
2022/07/19 03:54:57;;;;;;;7.80;4.30;;;20.40;99.90;;;;;;5065492;28;20220;-82
2022/07/19 03:57:46;;;;;;;7.75;4.22;;;20.40;99.90;;;;;;5057478;28;20235;-81
2022/07/19 04:00:34;;;;;;;9.25;4.82;;;20.40;99.90;;;;;;5050497;28;20224;-83
2022/07/19 04:03:23;;;;;;;6.78;4.43;;;20.40;99.90;;;;;;5061205;28;20228;-80
2022/07/19 04:06:12;;;;;;;7.78;4.75;;;20.50;99.90;;;;;;5064302;28;20700;-82
2022/07/19 04:09:01;;;;;;;7.18;4.30;;;20.40;99.90;;;;;;5066465;28;20220;-82
2022/07/19 04:11:51;;;;;;;7.57;4.15;;;20.50;99.90;;;;;;5075130;28;20221;-83
2022/07/19 04:14:40;;;;;;;6.15;4.55;;;20.60;99.90;;;;;;5062531;28;20219;-83
2022/07/19 04:17:28;;;;;;;8.98;4.53;;;20.50;99.90;;;;;;5050613;28;20224;-82
2022/07/19 04:20:17;;;;;;;9.15;4.75;;;20.60;99.90;;;;;;5079765;28;20239;-82
2022/07/19 04:23:06;;;;;;;6.28;3.92;;;20.60;99.90;;;;;;5049752;28;20227;-82
2022/07/19 04:25:54;;;;;;;9.55;5.10;;;20.60;99.90;;;;;;5050783;28;20239;-80
2022/07/19 04:28:45;;;;;;;7.88;4.60;;;20.60;99.90;;;;;;5064803;28;20694;-82
2022/07/19 04:31:33;;;;;;;7.30;4.80;;;20.70;99.90;;;;;;5065077;28;20311;-80
2022/07/19 04:34:24;;;;;;;8.73;4.50;;;20.70;99.90;;;;;;5064386;28;20227;-80
2022/07/19 04:37:13;;;;;;;7.35;4.30;;;20.80;99.90;;;;;;5064444;28;20254;-82
2022/07/19 04:40:03;;;;;;;8.23;4.80;;;20.80;99.90;;;;;;5050821;28;20777;-80
2022/07/19 04:42:52;;;;;;;10.52;5.40;;;20.90;99.90;;;;;;5078975;28;20239;-82
2022/07/19 04:45:44;;;;;;;7.40;4.60;;;21.00;99.90;;;;;;5051569;28;20227;-82
2022/07/19 04:48:32;;;;;;;10.60;5.00;;;21.10;99.90;;;;;;5062527;28;20302;-81
2022/07/19 04:51:21;;;;;;;13.40;4.70;;;21.10;99.90;;;;;;5054909;28;20267;-81
2022/07/19 04:54:10;;;;;;;8.30;4.65;;;21.00;99.90;;;;;;5067336;28;20307;-81
2022/07/19 04:56:58;;;;;;;8.23;4.57;;;21.00;99.90;;;;;;5065643;28;20632;-84
2022/07/19 04:59:47;;;;;;;11.50;4.35;;;21.00;99.90;;;;;;5048134;28;20224;-81
2022/07/19 05:02:38;;;;;;;11.30;4.85;;;20.90;99.90;;;;;;5062303;28;20739;-81
2022/07/19 05:05:27;;;;;;;7.63;4.32;;;20.90;99.90;;;;;;5075906;28;20223;-82
2022/07/19 05:08:17;;;;;;;8.15;4.88;;;20.80;99.90;;;;;;5064251;28;20240;-82
2022/07/19 05:11:06;;;;;;;8.07;4.43;;;20.80;99.90;;;;;;5049283;28;20219;-80
2022/07/19 05:13:55;;;;;;;7.55;4.68;;;20.90;99.90;;;;;;5062847;28;20228;-86
2022/07/19 05:16:43;;;;;;;9.07;4.55;;;20.90;99.90;;;;;;5052571;28;21175;-81
2022/07/19 05:19:33;;;;;;;11.15;4.93;;;20.90;99.90;;;;;;5064467;28;20224;-84
2022/07/19 05:22:24;;;;;;;7.30;3.85;;;21.00;99.90;;;;;;5053656;28;20222;-87
2022/07/19 05:25:12;;;;;;;8.88;4.10;;;21.00;99.90;;;;;;5069230;28;20285;-88
2022/07/19 05:28:01;;;;;;;6.75;4.65;;;21.00;99.90;;;;;;5068808;28;20526;-83
2022/07/19 05:30:50;;;;;;;8.20;5.00;;;21.00;99.90;;;;;;5049751;28;20243;-89
2022/07/19 05:33:39;;;;;;;7.05;4.43;;;21.00;99.90;;;;;;5056262;28;20594;-85
2022/07/19 05:36:30;;;;;;;11.40;4.32;;;21.00;99.90;;;;;;5051872;28;20219;-79
2022/07/19 05:39:19;;;;;;;6.43;4.40;;;21.00;99.90;;;;;;5067516;28;20307;-82
2022/07/19 05:42:07;;;;;;;7.43;4.40;;;21.10;99.90;;;;;;5052210;28;20226;-81
2022/07/19 05:44:56;;;;;;;11.63;4.95;;;21.10;99.90;;;;;;5066050;28;20219;-82
2022/07/19 05:47:45;;;;;;;10.52;4.35;;;21.10;99.90;;;;;;5068712;28;20243;-83
2022/07/19 05:50:33;;;;;;;7.70;4.32;;;21.20;99.90;;;;;;5061902;28;20213;-84
2022/07/19 05:53:23;;;;;;;13.75;5.25;;;21.20;99.90;;;;;;5075731;28;20241;-79
2022/07/19 05:56:12;;;;;;;6.13;4.32;;;21.20;99.90;;;;;;5065314;28;20642;-79
2022/07/19 05:59:01;;;;;;;7.13;4.15;;;21.20;99.90;;;;;;5065882;28;20349;-77
2022/07/19 06:01:51;;;;;;;9.95;4.10;;;21.10;99.90;;;;;;5061869;28;20800;-78
2022/07/19 06:04:39;;;;;;;7.03;5.10;;;21.20;99.90;;;;;;5064430;28;20694;-78
2022/07/19 06:07:28;;;;;;;7.95;4.30;;;21.20;99.90;;;;;;5061496;28;20231;-79
2022/07/19 06:10:19;;;;;;;8.98;4.78;;;21.20;99.90;;;;;;5061330;28;20230;-79
2022/07/19 06:13:07;;;;;;;7.55;4.80;;;21.20;99.90;;;;;;5065882;28;20225;-78
2022/07/19 06:15:56;;;;;;;9.95;4.50;;;21.20;99.90;;;;;;5049128;28;20220;-79
2022/07/19 06:18:45;;;;;;;10.43;4.75;;;21.20;99.90;;;;;;5069199;28;20228;-79
2022/07/19 06:21:34;;;;;;;8.13;4.57;;;21.30;99.90;;;;;;5060157;28;20718;-76
2022/07/19 06:24:23;;;;;;;7.95;4.75;;;21.40;99.90;;;;;;5060258;28;20212;-79
2022/07/19 06:27:13;;;;;;;7.18;4.60;;;21.50;99.90;;;;;;5061002;28;20761;-78
2022/07/19 06:30:02;;;;;;;12.45;5.88;;;21.70;99.90;;;;;;5060125;28;20220;-78
2022/07/19 06:32:51;;;;;;;8.23;4.90;;;21.90;99.90;;;;;;5043477;28;20235;-78
2022/07/19 06:35:40;;;;;;;7.78;4.55;;;22.00;99.90;;;;;;5060686;28;20228;-78
2022/07/19 06:38:29;;;;;;;8.45;4.47;;;22.20;99.90;;;;;;5061292;28;20220;-77
2022/07/19 06:41:18;;;;;;;15.25;7.22;;;22.10;99.90;;;;;;5057631;28;20593;-78
2022/07/19 06:58:25;;;;;;;11.65;4.20;;;22.00;99.90;;;;;;5052591;28;20227;-79
2022/07/19 07:01:14;;;;;;;14.10;5.10;;;22.00;99.90;;;;;;5070430;28;20228;-80
2022/07/19 07:04:03;;;;;;;9.75;4.63;;;21.90;99.90;;;;;;5067198;28;20225;-82
2022/07/19 07:06:51;;;;;;;20.25;5.90;;;22.00;99.90;;;;;;5073448;28;20666;-77
2022/07/19 07:09:40;;;;;;;11.45;4.90;;;22.10;99.90;;;;;;5070591;28;20225;-87
2022/07/19 07:12:29;;;;;;;11.70;6.35;;;22.10;99.90;;;;;;5078271;28;20235;-77
2022/07/19 07:15:20;;;;;;;9.40;5.60;;;22.10;99.90;;;;;;5068629;28;20213;-79
2022/07/19 07:18:09;;;;;;;13.05;5.55;;;22.30;99.90;;;;;;5055770;28;20223;-79
2022/07/19 07:20:57;;;;;;;10.25;4.25;;;22.40;99.90;;;;;;5047513;28;20230;-80
2022/07/19 07:23:46;;;;;;;13.35;4.85;;;22.50;99.90;;;;;;5063143;28;20224;-79
2022/07/19 07:26:34;;;;;;;17.15;4.78;;;22.60;99.90;;;;;;5057560;28;20309;-80
2022/07/19 07:29:24;;;;;;;17.08;4.75;;;22.70;99.90;;;;;;5041472;28;20287;-80
2022/07/19 07:32:14;;;;;;;12.02;4.95;;;22.90;99.90;;;;;;5050147;28;20263;-79
2022/07/19 07:35:02;;;;;;;13.32;4.60;;;23.00;99.90;;;;;;5058466;28;20270;-78
2022/07/19 07:37:51;;;;;;;10.95;4.50;;;23.10;99.90;;;;;;5050860;28;20236;-80
2022/07/19 07:40:40;;;;;;;10.27;4.47;;;23.30;99.90;;;;;;5068383;28;20216;-78
2022/07/19 07:43:28;;;;;;;17.42;5.97;;;23.40;99.90;;;;;;5064850;28;20346;-76
2022/07/19 07:46:17;;;;;;;8.48;3.83;;;23.50;99.90;;;;;;5064131;28;20246;-78
2022/07/19 07:49:08;;;;;;;9.90;3.92;;;23.50;99.90;;;;;;5072326;28;20220;-77
2022/07/19 07:51:57;;;;;;;13.50;4.30;;;23.40;99.90;;;;;;5060073;28;20235;-77
2022/07/19 07:54:47;;;;;;;13.80;4.60;;;23.40;99.90;;;;;;5061774;28;20236;-77
2022/07/19 07:57:55;;;;;;;7.85;3.95;;;23.40;99.90;;;;;;5033215;28;20239;-76
2022/07/19 08:00:44;;;;;;;7.70;4.03;;;23.40;99.90;;;;;;5055822;28;20309;-77
2022/07/19 08:03:33;;;;;;;10.48;3.72;;;23.40;99.90;;;;;;5057648;28;20220;-76
2022/07/19 08:06:23;;;;;;;15.73;4.43;;;23.40;99.90;;;;;;5058238;28;20338;-76
2022/07/19 08:09:12;;;;;;;15.38;5.07;;;23.40;99.90;;;;;;5061156;28;20243;-77
2022/07/19 08:12:01;;;;;;;7.50;4.22;;;23.40;99.90;;;;;;5061159;28;20221;-77
2022/07/19 08:14:50;;;;;;;6.60;3.67;;;23.40;99.90;;;;;;5061404;28;20343;-77
2022/07/19 08:17:39;;;;;;;8.52;3.78;;;23.40;99.90;;;;;;5037373;28;20221;-77
2022/07/19 08:20:27;;;;;;;10.75;4.22;;;23.50;99.90;;;;;;5054394;28;20291;-77
2022/07/19 08:23:18;;;;;;;11.13;4.43;;;23.50;99.90;;;;;;5078440;28;20216;-77
2022/07/19 08:26:06;;;;;;;11.05;5.40;;;23.60;99.90;;;;;;5068024;28;20216;-77
2022/07/19 08:28:55;;;;;;;8.98;4.03;;;23.70;99.90;;;;;;5071306;28;20224;-78
2022/07/19 08:31:44;;;;;;;9.80;3.80;;;23.80;99.90;;;;;;5073321;28;20235;-77
2022/07/19 08:34:32;;;;;;;10.43;4.88;;;23.90;99.90;;;;;;5072736;28;20224;-77
2022/07/19 08:37:21;;;;;;;7.80;4.13;;;24.00;99.90;;;;;;5064267;28;20231;-77
2022/07/19 08:40:12;;;;;;;11.23;4.15;;;24.20;99.90;;;;;;5059634;28;20258;-77
2022/07/19 08:43:05;;;;;;;13.27;4.60;;;24.40;99.90;;;;;;5058751;28;20224;-78
2022/07/19 08:45:54;;;;;;;12.18;4.18;;;24.80;99.90;;;;;;5068913;28;20228;-78
2022/07/19 08:48:44;;;;;;;11.23;4.07;;;24.90;99.90;;;;;;5046981;28;20227;-78
2022/07/19 08:51:35;;;;;;;7.55;4.07;;;24.80;99.90;;;;;;5057304;28;20216;-78
2022/07/19 08:54:26;;;;;;;14.05;4.82;;;24.90;99.90;;;;;;5057225;28;20741;-76
2022/07/19 09:00:32;;;;;;;9.13;4.22;;;26.00;99.90;;;;;;5061251;28;20302;-78
2022/07/19 09:03:21;;;;;;;9.90;3.72;;;26.90;98.40;;;;;;5058606;28;20847;-81
2022/07/19 09:06:09;;;;;;;9.90;4.10;;;27.40;95.30;;;;;;5043019;28;20223;-78
2022/07/19 09:09:04;;;;;;;7.68;4.20;;;28.20;91.40;;;;;;5047122;28;20216;-77
2022/07/19 09:11:54;;;;;;;8.07;4.03;;;29.60;86.90;;;;;;5045970;28;20224;-76
2022/07/19 09:14:54;;;;;;;6.72;4.10;;;30.10;81.30;;;;;;5041079;28;20238;-76
2022/07/19 09:17:43;;;;;;;8.50;3.63;;;29.60;81.00;;;;;;5046744;28;20234;-76
2022/07/19 09:20:31;;;;;;;8.70;3.28;;;29.60;78.30;;;;;;5044401;28;20219;-77
2022/07/19 09:23:20;;;;;;;5.97;3.35;;;30.40;76.80;;;;;;5050724;28;20749;-77
2022/07/19 09:26:09;;;;;;;10.40;3.65;;;30.90;71.70;;;;;;5042202;28;21254;-78
2022/07/19 09:29:17;;;;;;;9.35;3.80;;;31.10;71.00;;;;;;5042398;28;20570;-78
2022/07/19 09:32:10;;;;;;;6.38;3.38;;;30.90;72.40;;;;;;5056580;28;20242;-78
2022/07/19 09:35:01;;;;;;;6.85;3.72;;;31.60;68.50;;;;;;5038651;28;20737;-80
2022/07/19 09:37:50;;;;;;;7.45;4.18;;;32.10;68.50;;;;;;5042673;28;20232;-77
2022/07/19 09:40:39;;;;;;;22.65;3.67;;;32.10;66.50;;;;;;5059946;28;20593;-78
2022/07/19 09:43:28;;;;;;;7.28;3.58;;;33.20;66.00;;;;;;5050064;28;20223;-78
2022/07/19 09:46:38;;;;;;;8.32;3.70;;;33.60;63.90;;;;;;5056388;28;20216;-78
2022/07/19 09:49:28;;;;;;;22.83;4.85;;;34.80;63.20;;;;;;5057306;28;20247;-76
2022/07/19 09:52:21;;;;;;;5.93;3.40;;;35.90;58.90;;;;;;5045704;28;20283;-78
2022/07/19 09:55:11;;;;;;;14.25;2.90;;;36.80;58.90;;;;;;5057985;28;20216;-79
2022/07/19 09:58:03;;;;;;;5.18;3.88;;;36.80;52.50;;;;;;5059731;28;20328;-79
2022/07/19 10:00:51;;;;;;;5.78;3.03;;;37.30;52.50;;;;;;5071567;28;20311;-77
2022/07/19 10:03:42;;;;;;;3.72;2.58;;;38.00;51.00;;;;;;5059128;28;20281;-77
2022/07/19 10:06:40;;;;;;;6.65;3.30;;;39.20;50.10;;;;;;5059198;28;20224;-79
2022/07/19 10:09:29;;;;;;;14.57;3.35;;;40.40;47.90;;;;;;5047582;28;20224;-80
2022/07/19 10:12:19;;;;;;;6.03;2.60;;;41.30;46.70;;;;;;5061323;28;20235;-79
2022/07/19 10:15:10;;;;;;;7.75;2.20;;;41.50;46.00;;;;;;5041931;28;20288;-79
2022/07/19 10:18:08;;;;;;;4.43;2.50;;;41.60;44.70;;;;;;5064321;28;20273;-81
2022/07/19 10:21:00;;;;;;;5.22;3.28;;;42.30;43.60;;;;;;5065830;28;20779;-79
2022/07/19 10:23:53;;;;;;;3.55;2.78;;;42.60;42.60;;;;;;5054142;28;20227;-80
2022/07/19 10:26:44;;;;;;;3.10;2.58;;;42.10;41.80;;;;;;5056507;28;20215;-79
2022/07/19 10:29:32;;;;;;;3.70;2.38;;;42.50;42.20;;;;;;5059271;28;20230;-80
2022/07/19 10:32:29;;;;;;;5.97;2.15;;;42.10;40.50;;;;;;5046842;28;20212;-79
2022/07/19 10:35:19;;;;;;;3.33;2.60;;;42.10;42.40;;;;;;5057061;28;20228;-82
2022/07/19 10:38:10;;;;;;;8.13;3.13;;;43.00;41.60;;;;;;5061707;28;20223;-82
2022/07/19 10:41:00;;;;;;;7.35;2.90;;;42.90;42.50;;;;;;5074062;28;20238;-82
2022/07/19 10:44:08;;;;;;;3.60;2.60;;;43.30;41.70;;;;;;5067639;28;20227;-82
2022/07/19 10:46:57;;;;;;;3.28;2.47;;;41.80;40.10;;;;;;5043318;28;20231;-81
2022/07/19 10:49:47;;;;;;;4.75;2.58;;;42.60;42.40;;;;;;5053223;28;20230;-81
2022/07/19 10:52:37;;;;;;;6.60;3.08;;;41.40;41.00;;;;;;5066241;28;20223;-82
2022/07/19 10:55:27;;;;;;;4.05;2.53;;;42.70;41.20;;;;;;5066645;28;20216;-81
2022/07/19 10:58:17;;;;;;;5.20;2.67;;;43.70;40.60;;;;;;5074175;28;20224;-81
2022/07/19 11:01:17;;;;;;;5.25;2.80;;;44.30;40.10;;;;;;5048684;28;20251;-80
2022/07/19 11:04:30;;;;;;;9.05;3.38;;;44.80;39.10;;;;;;5064821;28;20220;-80
2022/07/19 11:07:21;;;;;;;4.72;2.75;;;45.20;37.70;;;;;;5049439;28;20594;-82
2022/07/19 11:10:10;;;;;;;3.13;2.70;;;44.90;38.50;;;;;;5055499;28;20246;-78
2022/07/19 11:13:00;;;;;;;4.20;2.55;;;44.80;38.40;;;;;;5062603;28;20984;-78
2022/07/19 11:15:57;;;;;;;3.38;2.80;;;45.00;38.40;;;;;;5057653;28;20232;-78
2022/07/19 11:18:46;;;;;;;6.85;3.10;;;44.50;38.80;;;;;;5065470;28;20246;-79
2022/07/19 11:21:37;;;;;;;4.57;2.67;;;44.70;38.60;;;;;;5059539;28;20211;-79
2022/07/19 11:24:27;;;;;;;8.75;3.40;;;44.80;39.10;;;;;;5046655;28;20220;-79
2022/07/19 11:27:18;;;;;;;4.90;3.00;;;45.00;38.80;;;;;;5053026;28;20226;-82
2022/07/19 11:30:08;;;;;;;7.88;3.80;;;45.30;38.20;;;;;;5059772;28;20260;-81
2022/07/19 11:33:00;;;;;;;5.25;3.17;;;45.40;39.00;;;;;;5081299;28;20226;-83
2022/07/19 11:35:56;;;;;;;4.70;2.72;;;44.60;37.40;;;;;;5058406;28;20223;-79
2022/07/19 11:38:47;;;;;;;4.60;2.90;;;44.20;36.90;;;;;;5060529;28;20244;-85
2022/07/19 11:41:36;;;;;;;5.10;4.13;;;43.30;38.30;;;;;;5046554;28;20258;-80
2022/07/19 11:44:25;;;;;;;7.22;3.00;;;44.00;40.30;;;;;;5055687;28;20228;-80
2022/07/19 11:47:14;;;;;;;7.05;3.00;;;44.00;39.20;;;;;;5057693;28;20281;-77
2022/07/19 11:50:09;;;;;;;3.58;2.85;;;44.70;39.30;;;;;;5044943;28;20223;-79
2022/07/19 11:53:00;;;;;;;4.95;2.72;;;45.10;37.80;;;;;;5057055;28;20567;-78
2022/07/19 11:55:49;;;;;;;6.70;2.90;;;44.90;37.50;;;;;;5058421;28;20333;-78
2022/07/19 11:58:41;;;;;;;3.45;2.70;;;43.50;37.10;;;;;;5059058;28;20386;-78
2022/07/19 12:01:32;;;;;;;5.20;3.40;;;44.20;39.20;;;;;;5062293;28;20232;-78
2022/07/19 12:04:21;;;;;;;3.60;2.90;;;42.80;39.00;;;;;;5059346;28;20242;-78
2022/07/19 12:07:12;;;;;;;3.75;3.10;;;42.70;40.00;;;;;;5061034;28;22543;-78
2022/07/19 12:10:00;;;;;;;4.03;2.80;;;43.60;39.30;;;;;;5046232;28;20240;-79
2022/07/19 12:12:49;;;;;;;4.82;2.80;;;44.20;38.70;;;;;;5059211;28;20224;-79
2022/07/19 12:15:50;;;;;;;7.22;3.05;;;43.40;37.40;;;;;;5063210;28;20538;-84
2022/07/19 12:18:47;;;;;;;6.38;2.75;;;43.90;39.00;;;;;;5078660;28;20219;-81
2022/07/19 12:21:42;;;;;;;5.70;3.10;;;44.50;37.70;;;;;;5061049;28;20361;-80
2022/07/19 12:24:32;;;;;;;4.85;3.67;;;44.80;37.50;;;;;;5059827;28;20222;-79
2022/07/19 12:27:22;;;;;;;5.35;2.88;;;44.90;37.60;;;;;;5059889;28;20334;-79
2022/07/19 12:30:20;;;;;;;6.30;4.35;;;44.40;37.20;;;;;;5074272;28;20223;-80
2022/07/19 12:33:12;;;;;;;6.05;2.88;;;42.70;37.40;;;;;;5047006;28;20220;-78
2022/07/19 12:36:00;;;;;;;11.20;3.30;;;42.90;39.90;;;;;;5058964;28;20314;-79
2022/07/19 12:38:49;;;;;;;9.27;2.80;;;42.70;38.60;;;;;;5060371;28;20223;-79
2022/07/19 12:41:39;;;;;;;3.08;2.38;;;42.70;39.00;;;;;;5069925;28;20222;-85
2022/07/19 12:44:28;;;;;;;3.22;2.67;;;42.60;37.60;;;;;;5074082;28;20289;-79
2022/07/19 12:47:17;;;;;;;5.80;2.70;;;42.50;38.40;;;;;;5067616;28;20215;-84
2022/07/19 12:50:26;;;;;;;3.50;2.90;;;40.50;39.60;;;;;;5063553;28;20583;-78
2022/07/19 12:53:17;;;;;;;3.55;2.75;;;38.00;42.00;;;;;;5067199;28;20216;-77
2022/07/19 12:56:06;;;;;;;4.00;2.65;;;36.20;45.20;;;;;;5057802;28;20215;-77
2022/07/19 13:02:04;;;;;;;11.77;3.42;;;34.60;50.10;;;;;;5061215;28;20689;-78
2022/07/19 13:04:53;;;;;;;17.45;3.38;;;34.10;51.00;;;;;;5059753;28;20273;-78
2022/07/19 13:07:42;;;;;;;10.80;3.53;;;33.70;50.50;;;;;;5061294;28;20571;-78
2022/07/19 13:10:31;;;;;;;8.63;3.42;;;33.30;50.80;;;;;;5059512;28;20231;-78
2022/07/19 13:13:20;;;;;;;8.15;3.20;;;33.10;50.60;;;;;;5061766;28;20219;-79
2022/07/19 13:16:10;;;;;;;8.38;3.45;;;33.00;51.90;;;;;;5060601;28;20224;-78
2022/07/19 13:18:59;;;;;;;7.25;4.30;;;32.50;51.70;;;;;;5058463;28;21076;-76
2022/07/19 13:21:47;;;;;;;14.40;3.72;;;32.50;52.60;;;;;;5062376;28;20238;-78
2022/07/19 13:24:36;;;;;;;15.25;4.20;;;32.00;52.80;;;;;;5075409;28;20227;-77
2022/07/19 13:27:45;;;;;;;6.05;3.95;;;31.80;53.30;;;;;;5058224;28;20227;-78
2022/07/19 13:30:35;;;;;;;6.35;3.30;;;31.40;55.30;;;;;;5046666;28;20279;-77
2022/07/19 13:33:28;;;;;;;9.57;4.00;;;31.40;55.40;;;;;;5056741;28;20310;-86
2022/07/19 13:36:18;;;;;;;5.10;3.70;;;31.20;56.40;;;;;;5058507;28;20292;-81
2022/07/19 13:39:08;;;;;;;11.60;4.15;;;31.20;54.90;;;;;;5073829;28;20216;-79
2022/07/19 13:41:57;;;;;;;12.73;4.35;;;31.00;57.00;;;;;;5052822;28;20216;-80
2022/07/19 13:44:46;;;;;;;8.93;4.10;;;30.90;57.20;;;;;;5051177;28;20227;-81
2022/07/19 13:47:37;;;;;;;11.38;3.85;;;30.80;56.90;;;;;;5050157;28;20227;-81
2022/07/19 13:50:27;;;;;;;6.85;3.47;;;30.80;57.50;;;;;;5046467;28;20215;-82
2022/07/19 13:53:16;;;;;;;4.47;3.47;;;30.90;56.20;;;;;;5061644;28;20688;-82
2022/07/19 13:56:06;;;;;;;5.18;3.58;;;30.80;55.50;;;;;;5064978;28;20215;-85
2022/07/19 13:58:55;;;;;;;8.27;4.63;;;30.60;57.30;;;;;;5068304;28;20314;-88
2022/07/19 14:01:50;;;;;;;5.32;4.30;;;30.40;56.70;;;;;;5096034;28;20206;-81
2022/07/19 14:04:39;;;;;;;7.15;4.53;;;30.30;58.40;;;;;;5068451;28;20231;-79
2022/07/19 14:07:29;;;;;;;17.90;4.32;;;30.50;57.30;;;;;;5059253;28;20382;-83
2022/07/19 14:10:18;;;;;;;7.75;4.07;;;30.40;58.60;;;;;;5063178;28;20215;-81
2022/07/19 14:13:07;;;;;;;5.43;3.45;;;30.20;57.60;;;;;;5047083;28;20338;-80
2022/07/19 14:16:16;;;;;;;12.40;4.10;;;30.00;58.60;;;;;;5062903;28;20227;-79
2022/07/19 14:19:04;;;;;;;6.75;3.70;;;29.90;60.10;;;;;;5063728;28;20231;-79
2022/07/19 14:21:53;;;;;;;5.47;3.67;;;30.00;58.90;;;;;;5063480;28;20227;-80
2022/07/19 14:24:43;;;;;;;4.55;3.38;;;30.00;58.80;;;;;;5061656;28;20314;-80
2022/07/19 14:27:32;;;;;;;17.33;4.70;;;29.80;59.40;;;;;;5062068;28;20266;-84
2022/07/19 14:30:24;;;;;;;10.77;4.35;;;29.90;58.60;;;;;;5072221;28;20236;-80
2022/07/19 14:33:13;;;;;;;11.73;4.22;;;29.80;59.80;;;;;;5049098;28;20231;-80
2022/07/19 14:36:01;;;;;;;14.60;4.43;;;29.80;61.40;;;;;;5066302;28;22527;-80
2022/07/19 14:38:50;;;;;;;8.73;3.60;;;29.60;60.00;;;;;;5053815;28;20662;-80
2022/07/19 14:41:42;;;;;;;6.90;3.78;;;29.60;59.90;;;;;;5056670;28;20219;-86
2022/07/19 14:44:32;;;;;;;7.00;3.88;;;29.70;59.60;;;;;;5064120;28;20223;-84
2022/07/19 14:47:22;;;;;;;4.57;3.80;;;29.60;60.00;;;;;;5065784;28;20216;-82
2022/07/19 14:50:12;;;;;;;9.43;4.00;;;29.50;59.60;;;;;;5063776;28;20223;-85
2022/07/19 14:53:01;;;;;;;5.72;3.30;;;29.30;61.20;;;;;;5080697;28;20860;-84
2022/07/19 14:55:50;;;;;;;8.05;4.00;;;29.10;61.80;;;;;;5087186;28;20273;-84
2022/07/19 14:58:41;;;;;;;10.43;4.53;;;29.00;62.00;;;;;;5053623;28;20227;-80
2022/07/19 15:01:30;;;;;;;10.98;5.00;;;28.90;62.90;;;;;;5067541;28;20728;-83
2022/07/19 15:04:20;;;;;;;10.35;5.43;;;28.70;63.70;;;;;;5069268;28;20231;-84